Terminal Aerodrome Forecast
Issued by NWS Charleston, WV

Current Version | Previous Version | Graphics & Text | Print | Product List | Glossary On
Versions: 1 2 3 4 5 6 7 8 9 10 11 12 13 14 15 16 17 18 19 20 21 22 23 24 25
000
FTUS41 KRLX 302300 RRA
TAFBKW
TAF
KBKW 302346Z 3100/3124 18008KT P6SM SCT250
     FM310600 22004KT P6SM BKN100
     FM310800 00000KT P6SM VCSH BKN090
     FM311800 23009KT 3SM SHRA VCTS OVC040CB PROB30 3118/3120 2SM
      -TSRA OVC050CB
     FM312100 24005KT P6SM BKN060=

USA.gov is the U.S. government's official web portal to all federal, state and local government web resources and services.